sensor_id;sensor_type;location;lat;lon;timestamp;P1;durP1;ratioP1;P2;durP2;ratioP2
25125;SDS011;13106;50.808;5.670;2023-02-23T00:01:16;55.28;;;38.63;;
25125;SDS011;13106;50.808;5.670;2023-02-23T00:03:42;65.22;;;43.55;;
25125;SDS011;13106;50.808;5.670;2023-02-23T00:06:08;61.55;;;42.97;;
25125;SDS011;13106;50.808;5.670;2023-02-23T00:08:35;61.60;;;40.22;;
25125;SDS011;13106;50.808;5.670;2023-02-23T00:11:05;70.93;;;44.45;;
25125;SDS011;13106;50.808;5.670;2023-02-23T00:13:34;71.50;;;43.75;;
25125;SDS011;13106;50.808;5.670;2023-02-23T00:16:11;73.75;;;43.92;;
25125;SDS011;13106;50.808;5.670;2023-02-23T00:18:41;70.57;;;45.10;;
25125;SDS011;13106;50.808;5.670;2023-02-23T00:21:13;76.80;;;46.65;;
25125;SDS011;13106;50.808;5.670;2023-02-23T00:23:40;74.35;;;45.60;;
25125;SDS011;13106;50.808;5.670;2023-02-23T00:26:06;73.95;;;46.95;;
25125;SDS011;13106;50.808;5.670;2023-02-23T00:28:32;83.10;;;49.70;;
25125;SDS011;13106;50.808;5.670;2023-02-23T00:31:00;71.45;;;45.33;;
25125;SDS011;13106;50.808;5.670;2023-02-23T00:33:26;80.38;;;47.08;;
25125;SDS011;13106;50.808;5.670;2023-02-23T00:35:54;72.95;;;45.97;;
25125;SDS011;13106;50.808;5.670;2023-02-23T00:38:20;77.32;;;46.08;;
25125;SDS011;13106;50.808;5.670;2023-02-23T00:40:46;60.75;;;38.97;;
25125;SDS011;13106;50.808;5.670;2023-02-23T00:43:12;74.70;;;45.70;;
25125;SDS011;13106;50.808;5.670;2023-02-23T00:45:39;74.65;;;44.85;;
25125;SDS011;13106;50.808;5.670;2023-02-23T00:48:05;65.60;;;38.95;;
25125;SDS011;13106;50.808;5.670;2023-02-23T00:50:34;60.38;;;37.05;;
25125;SDS011;13106;50.808;5.670;2023-02-23T00:53:03;64.20;;;39.58;;
25125;SDS011;13106;50.808;5.670;2023-02-23T00:55:29;73.60;;;43.58;;
25125;SDS011;13106;50.808;5.670;2023-02-23T00:57:55;71.72;;;42.75;;
25125;SDS011;13106;50.808;5.670;2023-02-23T01:00:22;64.20;;;40.08;;
25125;SDS011;13106;50.808;5.670;2023-02-23T01:02:49;66.55;;;40.92;;
25125;SDS011;13106;50.808;5.670;2023-02-23T01:05:15;76.80;;;44.47;;
25125;SDS011;13106;50.808;5.670;2023-02-23T01:07:42;69.35;;;42.00;;
25125;SDS011;13106;50.808;5.670;2023-02-23T01:10:11;75.07;;;45.00;;
25125;SDS011;13106;50.808;5.670;2023-02-23T01:12:45;79.18;;;45.13;;
25125;SDS011;13106;50.808;5.670;2023-02-23T01:15:11;78.97;;;47.38;;
25125;SDS011;13106;50.808;5.670;2023-02-23T01:17:38;84.00;;;49.83;;
25125;SDS011;13106;50.808;5.670;2023-02-23T01:20:04;88.75;;;51.08;;
25125;SDS011;13106;50.808;5.670;2023-02-23T01:22:48;91.60;;;53.35;;
25125;SDS011;13106;50.808;5.670;2023-02-23T01:25:15;83.90;;;48.47;;
25125;SDS011;13106;50.808;5.670;2023-02-23T01:27:42;82.95;;;47.85;;
25125;SDS011;13106;50.808;5.670;2023-02-23T01:30:08;107.93;;;56.17;;
25125;SDS011;13106;50.808;5.670;2023-02-23T01:32:35;78.70;;;48.05;;
25125;SDS011;13106;50.808;5.670;2023-02-23T01:35:05;85.18;;;49.42;;
25125;SDS011;13106;50.808;5.670;2023-02-23T01:37:35;98.68;;;68.55;;
25125;SDS011;13106;50.808;5.670;2023-02-23T01:40:05;86.93;;;48.67;;
25125;SDS011;13106;50.808;5.670;2023-02-23T01:42:37;87.72;;;49.45;;
25125;SDS011;13106;50.808;5.670;2023-02-23T01:47:42;85.70;;;48.67;;
25125;SDS011;13106;50.808;5.670;2023-02-23T01:50:08;88.32;;;49.22;;
25125;SDS011;13106;50.808;5.670;2023-02-23T01:52:35;80.30;;;48.70;;
25125;SDS011;13106;50.808;5.670;2023-02-23T01:55:02;89.57;;;49.50;;
25125;SDS011;13106;50.808;5.670;2023-02-23T01:57:30;89.72;;;48.63;;
25125;SDS011;13106;50.808;5.670;2023-02-23T01:59:56;82.68;;;47.10;;
25125;SDS011;13106;50.808;5.670;2023-02-23T02:02:23;86.97;;;47.08;;
25125;SDS011;13106;50.808;5.670;2023-02-23T02:04:57;83.57;;;48.38;;
25125;SDS011;13106;50.808;5.670;2023-02-23T02:07:25;94.07;;;50.55;;
25125;SDS011;13106;50.808;5.670;2023-02-23T02:09:52;74.78;;;45.08;;
25125;SDS011;13106;50.808;5.670;2023-02-23T02:12:48;80.55;;;46.30;;
25125;SDS011;13106;50.808;5.670;2023-02-23T02:15:17;78.65;;;45.35;;
25125;SDS011;13106;50.808;5.670;2023-02-23T02:21:19;77.53;;;46.88;;
25125;SDS011;13106;50.808;5.670;2023-02-23T02:46:34;80.80;;;47.88;;
25125;SDS011;13106;50.808;5.670;2023-02-23T02:56:47;86.90;;;49.83;;
25125;SDS011;13106;50.808;5.670;2023-02-23T02:59:16;91.32;;;51.42;;
25125;SDS011;13106;50.808;5.670;2023-02-23T03:02:00;81.57;;;49.40;;
25125;SDS011;13106;50.808;5.670;2023-02-23T03:04:45;82.45;;;47.47;;
25125;SDS011;13106;50.808;5.670;2023-02-23T03:07:33;92.80;;;51.95;;
25125;SDS011;13106;50.808;5.670;2023-02-23T03:13:34;95.65;;;50.60;;
25125;SDS011;13106;50.808;5.670;2023-02-23T03:22:12;68.55;;;41.53;;
25125;SDS011;13106;50.808;5.670;2023-02-23T03:25:06;75.75;;;47.88;;
25125;SDS011;13106;50.808;5.670;2023-02-23T03:30:47;76.05;;;42.25;;
25125;SDS011;13106;50.808;5.670;2023-02-23T03:33:40;70.13;;;38.47;;
25125;SDS011;13106;50.808;5.670;2023-02-23T03:36:27;75.10;;;45.17;;
25125;SDS011;13106;50.808;5.670;2023-02-23T03:41:58;74.70;;;41.55;;
25125;SDS011;13106;50.808;5.670;2023-02-23T03:44:46;64.20;;;39.58;;
25125;SDS011;13106;50.808;5.670;2023-02-23T03:47:32;68.10;;;39.25;;
25125;SDS011;13106;50.808;5.670;2023-02-23T03:53:13;66.30;;;38.92;;
25125;SDS011;13106;50.808;5.670;2023-02-23T03:55:59;67.40;;;40.55;;
25125;SDS011;13106;50.808;5.670;2023-02-23T03:58:55;79.55;;;43.60;;
25125;SDS011;13106;50.808;5.670;2023-02-23T04:01:42;76.60;;;44.30;;
25125;SDS011;13106;50.808;5.670;2023-02-23T04:04:26;66.25;;;39.95;;
25125;SDS011;13106;50.808;5.670;2023-02-23T04:07:13;66.60;;;37.60;;
25125;SDS011;13106;50.808;5.670;2023-02-23T04:10:00;75.75;;;43.95;;
25125;SDS011;13106;50.808;5.670;2023-02-23T04:15:40;79.20;;;45.42;;
25125;SDS011;13106;50.808;5.670;2023-02-23T04:18:10;77.28;;;43.08;;
25125;SDS011;13106;50.808;5.670;2023-02-23T04:20:37;68.53;;;40.35;;
25125;SDS011;13106;50.808;5.670;2023-02-23T04:23:03;61.63;;;37.90;;
25125;SDS011;13106;50.808;5.670;2023-02-23T04:25:29;76.45;;;43.85;;
25125;SDS011;13106;50.808;5.670;2023-02-23T04:27:55;76.75;;;44.47;;
25125;SDS011;13106;50.808;5.670;2023-02-23T04:30:21;78.05;;;45.58;;
25125;SDS011;13106;50.808;5.670;2023-02-23T04:32:53;71.45;;;44.42;;
25125;SDS011;13106;50.808;5.670;2023-02-23T04:35:19;79.53;;;44.90;;
25125;SDS011;13106;50.808;5.670;2023-02-23T04:37:45;80.13;;;45.42;;
25125;SDS011;13106;50.808;5.670;2023-02-23T04:40:11;68.85;;;42.33;;
25125;SDS011;13106;50.808;5.670;2023-02-23T04:42:38;75.13;;;45.17;;
25125;SDS011;13106;50.808;5.670;2023-02-23T04:45:05;76.75;;;45.17;;
25125;SDS011;13106;50.808;5.670;2023-02-23T04:47:31;74.10;;;43.83;;
25125;SDS011;13106;50.808;5.670;2023-02-23T04:49:57;74.60;;;44.58;;
25125;SDS011;13106;50.808;5.670;2023-02-23T04:52:23;71.78;;;42.20;;
25125;SDS011;13106;50.808;5.670;2023-02-23T04:54:49;78.55;;;43.75;;
25125;SDS011;13106;50.808;5.670;2023-02-23T04:57:15;62.50;;;37.65;;
25125;SDS011;13106;50.808;5.670;2023-02-23T04:59:42;60.55;;;37.40;;
25125;SDS011;13106;50.808;5.670;2023-02-23T05:02:08;73.13;;;43.92;;
25125;SDS011;13106;50.808;5.670;2023-02-23T05:04:34;74.03;;;43.30;;
25125;SDS011;13106;50.808;5.670;2023-02-23T05:07:00;71.97;;;41.72;;
25125;SDS011;13106;50.808;5.670;2023-02-23T05:09:27;86.25;;;46.95;;
25125;SDS011;13106;50.808;5.670;2023-02-23T05:11:54;73.82;;;43.45;;
25125;SDS011;13106;50.808;5.670;2023-02-23T05:14:20;81.32;;;46.78;;
25125;SDS011;13106;50.808;5.670;2023-02-23T05:16:46;73.82;;;43.83;;
25125;SDS011;13106;50.808;5.670;2023-02-23T05:19:12;70.82;;;42.67;;
25125;SDS011;13106;50.808;5.670;2023-02-23T05:21:38;71.35;;;42.78;;
25125;SDS011;13106;50.808;5.670;2023-02-23T05:24:05;68.28;;;39.58;;
25125;SDS011;13106;50.808;5.670;2023-02-23T05:26:31;77.13;;;43.92;;
25125;SDS011;13106;50.808;5.670;2023-02-23T05:28:57;81.65;;;45.33;;
25125;SDS011;13106;50.808;5.670;2023-02-23T05:31:23;70.07;;;41.63;;
25125;SDS011;13106;50.808;5.670;2023-02-23T05:33:50;77.03;;;43.83;;
25125;SDS011;13106;50.808;5.670;2023-02-23T05:36:17;66.47;;;42.33;;
25125;SDS011;13106;50.808;5.670;2023-02-23T05:38:44;79.47;;;44.80;;
25125;SDS011;13106;50.808;5.670;2023-02-23T05:41:11;74.80;;;43.40;;
25125;SDS011;13106;50.808;5.670;2023-02-23T05:43:38;73.93;;;44.33;;
25125;SDS011;13106;50.808;5.670;2023-02-23T05:46:07;78.50;;;45.13;;
25125;SDS011;13106;50.808;5.670;2023-02-23T05:48:34;59.33;;;38.20;;
25125;SDS011;13106;50.808;5.670;2023-02-23T05:51:01;65.07;;;38.65;;
25125;SDS011;13106;50.808;5.670;2023-02-23T05:53:27;55.75;;;34.22;;
25125;SDS011;13106;50.808;5.670;2023-02-23T05:55:53;52.05;;;34.20;;
25125;SDS011;13106;50.808;5.670;2023-02-23T05:58:19;52.70;;;33.92;;
25125;SDS011;13106;50.808;5.670;2023-02-23T06:00:45;62.40;;;39.10;;
25125;SDS011;13106;50.808;5.670;2023-02-23T06:03:11;65.03;;;38.60;;
25125;SDS011;13106;50.808;5.670;2023-02-23T06:05:38;65.07;;;38.58;;
25125;SDS011;13106;50.808;5.670;2023-02-23T06:08:04;67.00;;;39.50;;
25125;SDS011;13106;50.808;5.670;2023-02-23T06:10:30;59.00;;;38.92;;
25125;SDS011;13106;50.808;5.670;2023-02-23T06:12:56;57.75;;;37.28;;
25125;SDS011;13106;50.808;5.670;2023-02-23T06:15:22;58.22;;;34.92;;
25125;SDS011;13106;50.808;5.670;2023-02-23T06:17:48;53.92;;;35.78;;
25125;SDS011;13106;50.808;5.670;2023-02-23T06:20:14;56.30;;;35.28;;
25125;SDS011;13106;50.808;5.670;2023-02-23T06:22:40;53.78;;;34.75;;
25125;SDS011;13106;50.808;5.670;2023-02-23T06:25:06;48.42;;;32.33;;
25125;SDS011;13106;50.808;5.670;2023-02-23T06:27:37;46.42;;;31.45;;
25125;SDS011;13106;50.808;5.670;2023-02-23T06:30:03;51.13;;;33.10;;
25125;SDS011;13106;50.808;5.670;2023-02-23T06:32:30;53.58;;;34.08;;
25125;SDS011;13106;50.808;5.670;2023-02-23T06:34:56;54.83;;;35.90;;
25125;SDS011;13106;50.808;5.670;2023-02-23T06:37:22;62.60;;;38.17;;
25125;SDS011;13106;50.808;5.670;2023-02-23T06:39:48;57.30;;;36.05;;
25125;SDS011;13106;50.808;5.670;2023-02-23T06:42:14;74.88;;;42.50;;
25125;SDS011;13106;50.808;5.670;2023-02-23T06:44:41;53.00;;;35.33;;
25125;SDS011;13106;50.808;5.670;2023-02-23T06:47:07;52.92;;;34.30;;
25125;SDS011;13106;50.808;5.670;2023-02-23T06:49:33;61.67;;;36.25;;
25125;SDS011;13106;50.808;5.670;2023-02-23T06:51:59;61.60;;;35.63;;
25125;SDS011;13106;50.808;5.670;2023-02-23T06:54:25;60.67;;;37.67;;
25125;SDS011;13106;50.808;5.670;2023-02-23T06:56:51;57.13;;;36.17;;
25125;SDS011;13106;50.808;5.670;2023-02-23T06:59:20;69.63;;;38.90;;
25125;SDS011;13106;50.808;5.670;2023-02-23T07:01:48;66.00;;;38.90;;
25125;SDS011;13106;50.808;5.670;2023-02-23T07:04:14;69.43;;;40.00;;
25125;SDS011;13106;50.808;5.670;2023-02-23T07:06:40;74.90;;;41.67;;
25125;SDS011;13106;50.808;5.670;2023-02-23T07:09:06;63.45;;;37.15;;
25125;SDS011;13106;50.808;5.670;2023-02-23T07:11:32;71.50;;;39.90;;
25125;SDS011;13106;50.808;5.670;2023-02-23T07:13:59;72.82;;;40.00;;
25125;SDS011;13106;50.808;5.670;2023-02-23T07:16:26;71.75;;;40.13;;
25125;SDS011;13106;50.808;5.670;2023-02-23T07:18:52;87.50;;;42.65;;
25125;SDS011;13106;50.808;5.670;2023-02-23T07:21:18;77.82;;;41.97;;
25125;SDS011;13106;50.808;5.670;2023-02-23T07:23:45;72.35;;;40.80;;
25125;SDS011;13106;50.808;5.670;2023-02-23T07:26:13;87.32;;;44.15;;
25125;SDS011;13106;50.808;5.670;2023-02-23T07:28:40;209.60;;;98.00;;
25125;SDS011;13106;50.808;5.670;2023-02-23T07:31:06;100.05;;;53.33;;
25125;SDS011;13106;50.808;5.670;2023-02-23T07:33:32;81.57;;;43.28;;
25125;SDS011;13106;50.808;5.670;2023-02-23T07:35:58;118.88;;;65.10;;
25125;SDS011;13106;50.808;5.670;2023-02-23T07:38:24;103.50;;;56.05;;
25125;SDS011;13106;50.808;5.670;2023-02-23T07:40:50;83.22;;;46.40;;
25125;SDS011;13106;50.808;5.670;2023-02-23T07:43:16;83.38;;;45.63;;
25125;SDS011;13106;50.808;5.670;2023-02-23T07:45:45;81.82;;;44.05;;
25125;SDS011;13106;50.808;5.670;2023-02-23T07:48:11;80.63;;;44.28;;
25125;SDS011;13106;50.808;5.670;2023-02-23T07:50:38;77.55;;;40.25;;
25125;SDS011;13106;50.808;5.670;2023-02-23T07:53:04;74.07;;;39.75;;
25125;SDS011;13106;50.808;5.670;2023-02-23T07:55:31;77.57;;;44.00;;
25125;SDS011;13106;50.808;5.670;2023-02-23T07:57:57;71.03;;;39.00;;
25125;SDS011;13106;50.808;5.670;2023-02-23T08:00:23;63.08;;;37.08;;
25125;SDS011;13106;50.808;5.670;2023-02-23T08:02:51;77.53;;;40.92;;
25125;SDS011;13106;50.808;5.670;2023-02-23T08:05:17;70.70;;;39.75;;
25125;SDS011;13106;50.808;5.670;2023-02-23T08:07:43;76.13;;;41.75;;
25125;SDS011;13106;50.808;5.670;2023-02-23T08:10:10;69.93;;;38.83;;
25125;SDS011;13106;50.808;5.670;2023-02-23T08:12:36;68.38;;;38.45;;
25125;SDS011;13106;50.808;5.670;2023-02-23T08:15:03;73.20;;;40.65;;
25125;SDS011;13106;50.808;5.670;2023-02-23T08:17:32;74.47;;;41.30;;
25125;SDS011;13106;50.808;5.670;2023-02-23T08:19:58;71.10;;;40.53;;
25125;SDS011;13106;50.808;5.670;2023-02-23T08:22:24;77.53;;;41.95;;
25125;SDS011;13106;50.808;5.670;2023-02-23T08:24:50;77.95;;;40.85;;
25125;SDS011;13106;50.808;5.670;2023-02-23T08:27:16;81.07;;;40.72;;
25125;SDS011;13106;50.808;5.670;2023-02-23T08:29:42;70.88;;;39.55;;
25125;SDS011;13106;50.808;5.670;2023-02-23T08:32:08;77.80;;;40.88;;
25125;SDS011;13106;50.808;5.670;2023-02-23T08:34:38;66.68;;;38.30;;
25125;SDS011;13106;50.808;5.670;2023-02-23T08:37:05;68.60;;;38.47;;
25125;SDS011;13106;50.808;5.670;2023-02-23T08:39:31;69.72;;;39.30;;
25125;SDS011;13106;50.808;5.670;2023-02-23T08:41:57;76.78;;;40.47;;
25125;SDS011;13106;50.808;5.670;2023-02-23T08:44:24;66.25;;;38.35;;
25125;SDS011;13106;50.808;5.670;2023-02-23T08:46:50;69.00;;;39.90;;
25125;SDS011;13106;50.808;5.670;2023-02-23T08:49:17;70.97;;;39.15;;
25125;SDS011;13106;50.808;5.670;2023-02-23T08:51:44;70.63;;;40.90;;
25125;SDS011;13106;50.808;5.670;2023-02-23T08:54:11;67.80;;;38.13;;
25125;SDS011;13106;50.808;5.670;2023-02-23T08:56:42;61.10;;;37.80;;
25125;SDS011;13106;50.808;5.670;2023-02-23T08:59:08;65.80;;;36.90;;
25125;SDS011;13106;50.808;5.670;2023-02-23T09:01:35;60.80;;;36.97;;
25125;SDS011;13106;50.808;5.670;2023-02-23T09:04:01;62.28;;;36.72;;
25125;SDS011;13106;50.808;5.670;2023-02-23T09:06:27;62.00;;;38.00;;
25125;SDS011;13106;50.808;5.670;2023-02-23T09:08:54;75.45;;;39.33;;
25125;SDS011;13106;50.808;5.670;2023-02-23T09:11:20;87.32;;;42.47;;
25125;SDS011;13106;50.808;5.670;2023-02-23T09:13:46;105.00;;;54.75;;
25125;SDS011;13106;50.808;5.670;2023-02-23T09:16:12;102.35;;;42.80;;
25125;SDS011;13106;50.808;5.670;2023-02-23T09:18:39;100.68;;;43.53;;
25125;SDS011;13106;50.808;5.670;2023-02-23T09:21:07;105.90;;;44.17;;
25125;SDS011;13106;50.808;5.670;2023-02-23T09:23:35;102.65;;;43.33;;
25125;SDS011;13106;50.808;5.670;2023-02-23T09:26:02;121.38;;;44.58;;
25125;SDS011;13106;50.808;5.670;2023-02-23T09:28:28;125.32;;;46.50;;
25125;SDS011;13106;50.808;5.670;2023-02-23T09:30:54;114.93;;;44.83;;
25125;SDS011;13106;50.808;5.670;2023-02-23T09:33:21;115.28;;;45.10;;
25125;SDS011;13106;50.808;5.670;2023-02-23T09:35:47;110.55;;;44.50;;
25125;SDS011;13106;50.808;5.670;2023-02-23T09:38:13;121.35;;;44.25;;
25125;SDS011;13106;50.808;5.670;2023-02-23T09:40:50;136.48;;;49.03;;
25125;SDS011;13106;50.808;5.670;2023-02-23T09:48:33;133.82;;;47.13;;
25125;SDS011;13106;50.808;5.670;2023-02-23T09:51:00;150.13;;;63.85;;
25125;SDS011;13106;50.808;5.670;2023-02-23T09:53:37;127.68;;;49.85;;
25125;SDS011;13106;50.808;5.670;2023-02-23T09:56:06;121.80;;;48.33;;
25125;SDS011;13106;50.808;5.670;2023-02-23T09:58:34;120.75;;;44.03;;
25125;SDS011;13106;50.808;5.670;2023-02-23T10:01:10;110.13;;;42.50;;
25125;SDS011;13106;50.808;5.670;2023-02-23T10:03:39;98.20;;;38.13;;
25125;SDS011;13106;50.808;5.670;2023-02-23T10:06:08;100.55;;;38.55;;
25125;SDS011;13106;50.808;5.670;2023-02-23T10:11:22;92.13;;;37.20;;
25125;SDS011;13106;50.808;5.670;2023-02-23T10:16:30;85.82;;;35.38;;
25125;SDS011;13106;50.808;5.670;2023-02-23T10:21:55;69.43;;;29.13;;
25125;SDS011;13106;50.808;5.670;2023-02-23T10:24:28;73.95;;;30.15;;
25125;SDS011;13106;50.808;5.670;2023-02-23T10:26:57;73.80;;;30.27;;
25125;SDS011;13106;50.808;5.670;2023-02-23T10:31:53;70.85;;;30.17;;
25125;SDS011;13106;50.808;5.670;2023-02-23T10:34:19;67.65;;;28.63;;
25125;SDS011;13106;50.808;5.670;2023-02-23T10:36:50;70.03;;;30.08;;
25125;SDS011;13106;50.808;5.670;2023-02-23T10:39:18;85.55;;;31.90;;
25125;SDS011;13106;50.808;5.670;2023-02-23T10:41:44;75.35;;;31.65;;
25125;SDS011;13106;50.808;5.670;2023-02-23T10:44:14;88.68;;;35.10;;
25125;SDS011;13106;50.808;5.670;2023-02-23T10:46:42;82.47;;;34.40;;
25125;SDS011;13106;50.808;5.670;2023-02-23T10:49:09;84.10;;;34.13;;
25125;SDS011;13106;50.808;5.670;2023-02-23T10:51:42;77.45;;;33.75;;
25125;SDS011;13106;50.808;5.670;2023-02-23T10:56:54;95.32;;;40.38;;
25125;SDS011;13106;50.808;5.670;2023-02-23T10:59:20;95.78;;;37.05;;
25125;SDS011;13106;50.808;5.670;2023-02-23T11:01:46;94.47;;;37.03;;
25125;SDS011;13106;50.808;5.670;2023-02-23T11:04:17;103.30;;;38.05;;
25125;SDS011;13106;50.808;5.670;2023-02-23T11:06:46;98.85;;;40.17;;
25125;SDS011;13106;50.808;5.670;2023-02-23T11:09:23;114.57;;;41.90;;
25125;SDS011;13106;50.808;5.670;2023-02-23T11:12:03;110.60;;;45.42;;
25125;SDS011;13106;50.808;5.670;2023-02-23T11:14:40;117.82;;;46.28;;
25125;SDS011;13106;50.808;5.670;2023-02-23T11:17:07;114.78;;;42.55;;
25125;SDS011;13106;50.808;5.670;2023-02-23T11:19:46;116.43;;;42.15;;
25125;SDS011;13106;50.808;5.670;2023-02-23T11:22:17;114.53;;;42.80;;
25125;SDS011;13106;50.808;5.670;2023-02-23T11:24:47;111.63;;;44.97;;
25125;SDS011;13106;50.808;5.670;2023-02-23T11:27:23;118.10;;;45.95;;
25125;SDS011;13106;50.808;5.670;2023-02-23T11:29:50;247.07;;;104.70;;
25125;SDS011;13106;50.808;5.670;2023-02-23T11:32:18;152.75;;;62.47;;
25125;SDS011;13106;50.808;5.670;2023-02-23T11:34:45;187.10;;;76.55;;
25125;SDS011;13106;50.808;5.670;2023-02-23T11:42:18;186.77;;;82.38;;
25125;SDS011;13106;50.808;5.670;2023-02-23T11:44:51;93.57;;;39.97;;
25125;SDS011;13106;50.808;5.670;2023-02-23T11:47:27;101.53;;;43.42;;
25125;SDS011;13106;50.808;5.670;2023-02-23T11:49:54;103.00;;;44.53;;
25125;SDS011;13106;50.808;5.670;2023-02-23T11:52:21;107.70;;;42.60;;
25125;SDS011;13106;50.808;5.670;2023-02-23T11:57:20;88.68;;;37.17;;
25125;SDS011;13106;50.808;5.670;2023-02-23T11:59:46;92.45;;;37.17;;
25125;SDS011;13106;50.808;5.670;2023-02-23T12:04:43;81.15;;;34.58;;
25125;SDS011;13106;50.808;5.670;2023-02-23T12:09:45;74.93;;;32.60;;
25125;SDS011;13106;50.808;5.670;2023-02-23T12:12:13;67.18;;;30.27;;
25125;SDS011;13106;50.808;5.670;2023-02-23T12:14:49;65.65;;;29.90;;
25125;SDS011;13106;50.808;5.670;2023-02-23T12:17:26;65.07;;;30.10;;
25125;SDS011;13106;50.808;5.670;2023-02-23T12:19:54;67.53;;;29.55;;
25125;SDS011;13106;50.808;5.670;2023-02-23T12:22:36;65.22;;;30.10;;
25125;SDS011;13106;50.808;5.670;2023-02-23T12:25:09;63.92;;;30.17;;
25125;SDS011;13106;50.808;5.670;2023-02-23T12:27:40;62.00;;;29.48;;
25125;SDS011;13106;50.808;5.670;2023-02-23T12:35:22;59.65;;;26.65;;
25125;SDS011;13106;50.808;5.670;2023-02-23T12:48:11;56.33;;;25.80;;
25125;SDS011;13106;50.808;5.670;2023-02-23T12:50:49;49.47;;;24.73;;
25125;SDS011;13106;50.808;5.670;2023-02-23T12:58:32;48.90;;;25.00;;
25125;SDS011;13106;50.808;5.670;2023-02-23T13:01:03;54.63;;;26.42;;
25125;SDS011;13106;50.808;5.670;2023-02-23T13:06:06;60.33;;;28.88;;
25125;SDS011;13106;50.808;5.670;2023-02-23T13:18:43;50.63;;;24.55;;
25125;SDS011;13106;50.808;5.670;2023-02-23T13:23:42;51.97;;;29.27;;
25125;SDS011;13106;50.808;5.670;2023-02-23T13:31:26;41.75;;;21.65;;
25125;SDS011;13106;50.808;5.670;2023-02-23T13:33:53;44.75;;;21.20;;
25125;SDS011;13106;50.808;5.670;2023-02-23T13:36:20;40.78;;;20.23;;
25125;SDS011;13106;50.808;5.670;2023-02-23T13:41:26;44.28;;;21.33;;
25125;SDS011;13106;50.808;5.670;2023-02-23T13:43:58;45.35;;;21.83;;
25125;SDS011;13106;50.808;5.670;2023-02-23T13:51:56;42.95;;;21.13;;
25125;SDS011;13106;50.808;5.670;2023-02-23T13:54:26;42.88;;;20.58;;
25125;SDS011;13106;50.808;5.670;2023-02-23T13:56:57;45.55;;;21.63;;
25125;SDS011;13106;50.808;5.670;2023-02-23T13:59:25;46.40;;;21.73;;
25125;SDS011;13106;50.808;5.670;2023-02-23T14:01:53;46.15;;;22.88;;
25125;SDS011;13106;50.808;5.670;2023-02-23T14:06:49;47.92;;;23.38;;
25125;SDS011;13106;50.808;5.670;2023-02-23T14:09:28;44.67;;;22.63;;
25125;SDS011;13106;50.808;5.670;2023-02-23T14:12:00;41.85;;;21.98;;
25125;SDS011;13106;50.808;5.670;2023-02-23T14:17:09;42.63;;;21.35;;
25125;SDS011;13106;50.808;5.670;2023-02-23T14:19:36;44.20;;;21.38;;
25125;SDS011;13106;50.808;5.670;2023-02-23T14:22:04;41.45;;;21.13;;
25125;SDS011;13106;50.808;5.670;2023-02-23T14:24:34;46.92;;;22.13;;
25125;SDS011;13106;50.808;5.670;2023-02-23T14:29:28;45.33;;;21.25;;
25125;SDS011;13106;50.808;5.670;2023-02-23T14:39:47;48.00;;;23.60;;
25125;SDS011;13106;50.808;5.670;2023-02-23T14:42:18;50.88;;;23.55;;
25125;SDS011;13106;50.808;5.670;2023-02-23T14:44:45;47.97;;;24.08;;
25125;SDS011;13106;50.808;5.670;2023-02-23T14:47:16;49.72;;;23.73;;
25125;SDS011;13106;50.808;5.670;2023-02-23T14:49:44;51.78;;;23.52;;
25125;SDS011;13106;50.808;5.670;2023-02-23T14:52:22;43.88;;;23.85;;
25125;SDS011;13106;50.808;5.670;2023-02-23T14:54:48;45.97;;;22.77;;
25125;SDS011;13106;50.808;5.670;2023-02-23T14:57:21;57.75;;;32.38;;
25125;SDS011;13106;50.808;5.670;2023-02-23T14:59:52;52.85;;;28.45;;
25125;SDS011;13106;50.808;5.670;2023-02-23T15:02:20;51.00;;;26.48;;
25125;SDS011;13106;50.808;5.670;2023-02-23T15:04:48;50.33;;;24.38;;
25125;SDS011;13106;50.808;5.670;2023-02-23T15:07:15;55.78;;;30.90;;
25125;SDS011;13106;50.808;5.670;2023-02-23T15:09:50;49.92;;;24.38;;
25125;SDS011;13106;50.808;5.670;2023-02-23T15:12:26;46.58;;;23.38;;
25125;SDS011;13106;50.808;5.670;2023-02-23T15:14:58;47.33;;;23.58;;
25125;SDS011;13106;50.808;5.670;2023-02-23T15:17:26;45.42;;;23.13;;
25125;SDS011;13106;50.808;5.670;2023-02-23T15:19:57;49.55;;;23.67;;
25125;SDS011;13106;50.808;5.670;2023-02-23T15:22:31;48.85;;;24.25;;
25125;SDS011;13106;50.808;5.670;2023-02-23T15:24:58;46.58;;;23.30;;
25125;SDS011;13106;50.808;5.670;2023-02-23T15:27:28;48.95;;;23.42;;
25125;SDS011;13106;50.808;5.670;2023-02-23T15:29:54;49.80;;;22.90;;
25125;SDS011;13106;50.808;5.670;2023-02-23T15:32:21;48.22;;;22.75;;
25125;SDS011;13106;50.808;5.670;2023-02-23T15:34:49;42.38;;;21.50;;
25125;SDS011;13106;50.808;5.670;2023-02-23T15:37:29;45.22;;;22.35;;
25125;SDS011;13106;50.808;5.670;2023-02-23T15:42:35;43.80;;;21.42;;
25125;SDS011;13106;50.808;5.670;2023-02-23T15:45:03;45.45;;;23.05;;
25125;SDS011;13106;50.808;5.670;2023-02-23T15:47:33;41.33;;;21.77;;
25125;SDS011;13106;50.808;5.670;2023-02-23T15:50:02;42.20;;;22.30;;
25125;SDS011;13106;50.808;5.670;2023-02-23T15:52:29;40.17;;;21.05;;
25125;SDS011;13106;50.808;5.670;2023-02-23T15:55:04;42.95;;;21.65;;
25125;SDS011;13106;50.808;5.670;2023-02-23T15:57:32;44.80;;;22.33;;
25125;SDS011;13106;50.808;5.670;2023-02-23T16:00:00;41.05;;;21.27;;
25125;SDS011;13106;50.808;5.670;2023-02-23T16:02:28;43.97;;;21.30;;
25125;SDS011;13106;50.808;5.670;2023-02-23T16:04:55;43.13;;;21.73;;
25125;SDS011;13106;50.808;5.670;2023-02-23T16:07:26;45.33;;;22.13;;
25125;SDS011;13106;50.808;5.670;2023-02-23T16:12:22;40.88;;;21.70;;
25125;SDS011;13106;50.808;5.670;2023-02-23T16:14:51;41.45;;;21.40;;
25125;SDS011;13106;50.808;5.670;2023-02-23T16:17:20;43.95;;;22.00;;
25125;SDS011;13106;50.808;5.670;2023-02-23T16:19:47;43.92;;;22.08;;
25125;SDS011;13106;50.808;5.670;2023-02-23T16:22:20;43.10;;;21.65;;
25125;SDS011;13106;50.808;5.670;2023-02-23T16:24:52;47.40;;;27.77;;
25125;SDS011;13106;50.808;5.670;2023-02-23T16:27:21;46.05;;;23.98;;
25125;SDS011;13106;50.808;5.670;2023-02-23T16:29:54;45.13;;;24.17;;
25125;SDS011;13106;50.808;5.670;2023-02-23T16:32:20;45.38;;;23.15;;
25125;SDS011;13106;50.808;5.670;2023-02-23T16:34:55;49.38;;;23.65;;
25125;SDS011;13106;50.808;5.670;2023-02-23T16:37:24;43.53;;;23.05;;
25125;SDS011;13106;50.808;5.670;2023-02-23T16:39:51;45.03;;;23.65;;
25125;SDS011;13106;50.808;5.670;2023-02-23T16:44:45;45.35;;;23.40;;
25125;SDS011;13106;50.808;5.670;2023-02-23T16:49:47;44.53;;;22.58;;
25125;SDS011;13106;50.808;5.670;2023-02-23T16:52:18;44.33;;;23.48;;
25125;SDS011;13106;50.808;5.670;2023-02-23T16:54:44;44.47;;;23.30;;
25125;SDS011;13106;50.808;5.670;2023-02-23T16:57:20;44.08;;;22.13;;
25125;SDS011;13106;50.808;5.670;2023-02-23T16:59:49;45.67;;;22.27;;
25125;SDS011;13106;50.808;5.670;2023-02-23T17:02:18;48.47;;;23.17;;
25125;SDS011;13106;50.808;5.670;2023-02-23T17:04:46;45.28;;;22.83;;
25125;SDS011;13106;50.808;5.670;2023-02-23T17:07:14;48.13;;;22.60;;
25125;SDS011;13106;50.808;5.670;2023-02-23T17:09:40;46.40;;;23.02;;
25125;SDS011;13106;50.808;5.670;2023-02-23T17:12:08;44.33;;;21.30;;
25125;SDS011;13106;50.808;5.670;2023-02-23T17:14:34;44.42;;;22.05;;
25125;SDS011;13106;50.808;5.670;2023-02-23T17:17:00;47.08;;;22.73;;